Time;durP1;ratioP1;P1;durP2;ratioP2;P2;SDS_P1;SDS_P2;PMS_P1;PMS_P2;Temp;Humidity;BMP_temperature;BMP_pressure;BME280_temperature;BME280_humidity;BME280_pressure;Samples;Min_cycle;Max_cycle;Signal;HPM_P1;HPM_P2
2022/07/03 00:01:49;;;;;;;8.73;6.15;;;;;;;15.18;66.24;100920.29;2183912;81;29007;-67
2022/07/03 00:04:51;;;;;;;9.00;6.30;;;;;;;15.14;66.60;100910.13;2184045;81;27732;-67
2022/07/03 00:07:53;;;;;;;8.23;6.67;;;;;;;15.08;66.64;100898.37;2183519;81;28743;-67
2022/07/03 00:11:00;;;;;;;7.60;5.70;;;;;;;15.05;66.72;100910.69;2184021;81;31120;-67
2022/07/03 00:14:04;;;;;;;7.35;6.55;;;;;;;15.02;66.96;100908.16;2141682;82;32959;-67
2022/07/03 00:17:07;;;;;;;7.22;6.00;;;;;;;14.97;66.80;100895.45;2141279;83;27857;-66
2022/07/03 00:20:12;;;;;;;8.78;6.35;;;;;;;14.93;67.11;100901.48;2114194;84;27890;-67
2022/07/03 00:23:21;;;;;;;8.95;5.95;;;;;;;14.89;67.37;100894.05;2174335;81;29444;-67
2022/07/03 00:26:23;;;;;;;8.08;7.00;;;;;;;14.85;67.27;100900.58;2157515;82;31012;-67
2022/07/03 00:29:29;;;;;;;7.78;5.97;;;;;;;14.81;67.51;100900.36;2157273;82;33959;-66
2022/07/03 00:32:31;;;;;;;8.23;5.70;;;;;;;14.77;67.42;100897.47;2157887;82;29071;-67
2022/07/03 00:35:35;;;;;;;7.40;6.62;;;;;;;14.75;67.47;100906.12;2136085;82;27812;-66
2022/07/03 00:38:36;;;;;;;10.65;6.65;;;;;;;14.73;67.46;100908.89;2110418;83;28649;-67
2022/07/03 00:41:39;;;;;;;7.47;6.22;;;;;;;14.68;67.56;100911.47;2108811;84;31136;-67
2022/07/03 00:44:51;;;;;;;7.12;6.30;;;;;;;14.64;67.60;100911.23;2108611;84;32931;-67
2022/07/03 00:47:56;;;;;;;6.40;5.80;;;;;;;14.59;67.69;100911.02;2107254;84;29040;-67
2022/07/03 00:50:59;;;;;;;7.28;5.65;;;;;;;14.56;67.72;100915.72;2070127;86;27738;-68
2022/07/03 00:54:02;;;;;;;7.50;6.40;;;;;;;14.53;67.98;100914.55;2093936;85;28811;-67
2022/07/03 00:57:04;;;;;;;9.58;5.97;;;;;;;14.48;67.93;100908.03;2148642;82;31203;-67
2022/07/03 01:00:08;;;;;;;5.92;5.33;;;;;;;14.46;67.99;100902.35;2148493;82;33198;-67
2022/07/03 01:03:20;;;;;;;6.80;5.55;;;;;;;14.41;68.23;100903.96;2104947;84;29983;-66
2022/07/03 01:06:20;;;;;;;8.95;6.03;;;;;;;14.37;68.36;100895.19;2084182;85;27698;-67
2022/07/03 01:09:27;;;;;;;11.90;6.33;;;;;;;14.33;68.61;100889.56;2105065;84;29448;-67
2022/07/03 01:12:42;;;;;;;8.10;7.05;;;;;;;14.30;68.73;100890.23;2104448;84;31012;-68
2022/07/03 01:15:50;;;;;;;;;;;;;;;14.26;68.98;100889.50;2107086;84;32970;-67
2022/07/03 01:18:56;;;;;;;11.40;7.08;;;;;;;14.24;69.61;100881.98;2078576;85;29929;-67
2022/07/03 01:22:26;;;;;;;9.50;6.97;;;;;;;14.19;69.76;100878.69;2176459;81;27707;-68
2022/07/03 01:25:47;;;;;;;10.63;6.42;;;;;;;14.17;70.04;100880.11;2188675;81;28640;-67
2022/07/03 01:28:51;;;;;;;9.78;6.95;;;;;;;14.13;69.85;100875.38;2164406;81;30994;-66
2022/07/03 01:31:54;;;;;;;8.75;6.70;;;;;;;14.12;70.11;100874.13;2188580;81;33937;-66
2022/07/03 01:34:57;;;;;;;12.40;7.80;;;;;;;14.12;70.43;100875.47;2188994;81;29007;-67
2022/07/03 01:38:12;;;;;;;9.40;7.17;;;;;;;14.12;70.59;100871.43;2185667;81;27695;-66
2022/07/03 01:41:13;;;;;;;11.05;7.78;;;;;;;14.11;70.47;100865.65;2155926;82;28704;-66
2022/07/03 01:44:15;;;;;;;10.68;7.20;;;;;;;14.10;70.83;100863.91;2156237;82;31042;-66
2022/07/03 01:47:16;;;;;;;9.65;7.25;;;;;;;14.06;70.82;100860.52;2156094;82;32990;-66
2022/07/03 01:50:22;;;;;;;12.35;7.72;;;;;;;14.04;71.23;100869.16;2156122;82;29081;-67
2022/07/03 01:53:30;;;;;;;10.82;7.60;;;;;;;14.02;71.17;100855.36;2117827;84;27614;-66
2022/07/03 01:56:33;;;;;;;9.50;7.50;;;;;;;14.01;70.91;100859.01;2114654;84;28651;-66
2022/07/03 01:59:35;;;;;;;11.57;7.30;;;;;;;14.00;71.19;100854.58;2106317;84;31657;-66
2022/07/03 02:03:00;;;;;;;9.33;6.45;;;;;;;13.99;71.23;100856.41;2100170;84;33800;-67
2022/07/03 02:06:14;;;;;;;11.50;6.87;;;;;;;13.98;71.25;100849.28;2100484;84;29906;-66
2022/07/03 02:09:18;;;;;;;11.63;7.27;;;;;;;13.96;71.22;100845.80;2100586;84;27702;-66
2022/07/03 02:12:20;;;;;;;10.08;6.80;;;;;;;13.92;71.54;100844.22;2100433;84;29376;-66
2022/07/03 02:15:26;;;;;;;8.83;7.55;;;;;;;13.89;71.40;100847.11;2099992;84;31070;-66
2022/07/03 02:18:33;;;;;;;9.03;7.53;;;;;;;13.88;71.55;100854.30;2099855;84;33752;-66
2022/07/03 02:21:34;;;;;;;8.95;7.20;;;;;;;13.87;71.65;100849.87;2105567;84;29032;-66
2022/07/03 02:24:44;;;;;;;9.83;8.03;;;;;;;13.84;71.70;100845.98;2114311;84;27773;-68
2022/07/03 02:27:56;;;;;;;13.75;10.05;;;;;;;13.82;71.87;100842.51;2114617;84;29501;-67
2022/07/03 02:30:59;;;;;;;11.50;7.58;;;;;;;13.81;71.95;100842.14;2113893;84;32233;-67
2022/07/03 02:34:02;;;;;;;9.90;6.90;;;;;;;13.81;72.15;100840.80;2091045;84;33021;-67
2022/07/03 02:37:17;;;;;;;10.10;6.50;;;;;;;13.78;71.98;100835.08;2114563;84;29088;-68
2022/07/03 02:40:38;;;;;;;11.22;8.30;;;;;;;13.77;71.91;100837.37;2110220;84;27698;-68
2022/07/03 02:44:01;;;;;;;7.83;6.90;;;;;;;13.76;72.20;100844.20;2110927;84;28082;-66
2022/07/03 02:47:27;;;;;;;9.78;8.05;;;;;;;13.74;72.10;100850.15;2109953;83;31074;-66
2022/07/03 02:50:31;;;;;;;10.35;7.40;;;;;;;13.75;72.27;100854.58;2110743;84;32974;-66
2022/07/03 02:54:01;;;;;;;9.63;7.25;;;;;;;13.74;72.19;100853.70;2115557;84;29028;-66
2022/07/03 02:57:08;;;;;;;9.18;7.85;;;;;;;13.75;72.10;100847.85;2099048;84;27704;-67
2022/07/03 03:00:11;;;;;;;9.33;7.40;;;;;;;13.75;72.39;100851.89;2124922;83;29495;-67
2022/07/03 03:03:12;;;;;;;13.00;7.87;;;;;;;13.75;72.13;100849.20;2098852;84;31031;-67
2022/07/03 03:06:15;;;;;;;11.38;8.10;;;;;;;13.75;72.23;100851.40;2124977;82;33022;-66
2022/07/03 03:09:27;;;;;;;10.08;7.35;;;;;;;13.77;72.23;100848.64;2084763;85;29037;-66
2022/07/03 03:12:32;;;;;;;9.05;7.90;;;;;;;13.78;72.19;100845.85;2136749;83;27741;-67
2022/07/03 03:15:36;;;;;;;8.87;8.00;;;;;;;13.79;72.24;100842.70;2136548;83;28911;-67
2022/07/03 03:18:39;;;;;;;10.88;7.37;;;;;;;13.80;72.33;100839.91;2136495;82;31028;-67
2022/07/03 03:22:03;;;;;;;8.95;7.30;;;;;;;13.83;72.34;100842.91;2137551;81;33756;-68
2022/07/03 03:25:04;;;;;;;8.68;7.22;;;;;;;13.85;72.35;100846.87;2136407;83;29049;-67
2022/07/03 03:28:06;;;;;;;10.78;7.92;;;;;;;13.88;72.41;100846.22;2136811;83;27708;-69
2022/07/03 03:31:09;;;;;;;11.57;7.42;;;;;;;13.91;72.53;100855.95;2136533;82;28643;-67
2022/07/03 03:34:11;;;;;;;9.75;7.60;;;;;;;13.94;72.57;100859.37;2136215;83;31119;-67
2022/07/03 03:37:15;;;;;;;14.80;10.15;;;;;;;13.97;72.56;100847.55;2136279;83;33799;-66
2022/07/03 03:40:17;;;;;;;13.32;10.03;;;;;;;14.02;72.81;100844.13;2136201;82;29039;-66
2022/07/03 03:43:18;;;;;;;16.93;10.70;;;;;;;14.09;72.95;100854.94;2136581;82;27700;-66
2022/07/03 03:46:20;;;;;;;15.83;9.68;;;;;;;14.17;73.31;100849.61;2133977;82;29552;-68
2022/07/03 03:49:21;;;;;;;11.80;7.75;;;;;;;14.23;73.29;100854.67;2172564;81;31006;-67
2022/07/03 03:52:23;;;;;;;11.68;8.95;;;;;;;14.30;73.53;100852.50;2183787;81;33104;-66
2022/07/03 03:55:25;;;;;;;20.72;10.48;;;;;;;14.36;73.56;100845.39;2184185;81;28987;-66
2022/07/03 03:58:30;;;;;;;11.43;9.48;;;;;;;14.41;73.66;100844.16;2184135;81;27703;-66
2022/07/03 04:01:33;;;;;;;14.68;9.48;;;;;;;14.48;73.60;100843.33;2183542;81;27732;-66
2022/07/03 04:04:35;;;;;;;11.45;8.48;;;;;;;14.57;73.62;100836.08;2184002;81;30967;-66
2022/07/03 04:07:37;;;;;;;10.55;8.58;;;;;;;14.67;73.59;100831.02;2184181;81;32925;-66
2022/07/03 04:10:38;;;;;;;10.55;9.28;;;;;;;14.77;73.70;100826.45;2184125;81;29083;-66
2022/07/03 04:13:39;;;;;;;10.32;9.15;;;;;;;14.87;73.72;100823.63;2184278;81;27678;-66
2022/07/03 04:16:40;;;;;;;11.73;8.18;;;;;;;14.96;73.51;100824.41;2184721;81;28615;-66
2022/07/03 04:19:42;;;;;;;13.70;8.65;;;;;;;15.07;73.50;100828.28;2183924;81;31912;-67
2022/07/03 04:22:43;;;;;;;11.73;7.58;;;;;;;15.15;73.47;100833.61;2183904;81;32920;-66
2022/07/03 04:25:47;;;;;;;12.15;7.72;;;;;;;15.26;73.48;100828.06;2184147;81;29025;-66
2022/07/03 04:28:47;;;;;;;11.35;8.05;;;;;;;15.30;73.26;100813.42;2183885;81;27601;-66
2022/07/03 04:31:49;;;;;;;10.20;8.68;;;;;;;15.50;73.26;100825.68;2184247;81;28585;-66
2022/07/03 04:34:50;;;;;;;10.65;8.43;;;;;;;15.61;73.22;100820.97;2184163;81;31820;-66
2022/07/03 04:37:52;;;;;;;14.18;8.23;;;;;;;15.73;72.98;100822.89;2183614;81;33833;-67
2022/07/03 04:40:53;;;;;;;11.60;8.50;;;;;;;15.87;72.93;100822.52;2184016;81;29035;-66
2022/07/03 04:43:54;;;;;;;11.85;8.78;;;;;;;16.03;72.95;100821.92;2184357;81;27589;-66
2022/07/03 04:46:56;;;;;;;8.73;7.80;;;;;;;16.20;72.69;100827.61;2184254;81;28611;-66
2022/07/03 04:49:57;;;;;;;8.58;6.85;;;;;;;16.65;73.42;100827.86;2184013;81;30964;-66
2022/07/03 04:52:58;;;;;;;9.48;6.75;;;;;;;17.51;73.32;100781.83;2184088;81;32938;-66
2022/07/03 04:56:03;;;;;;;13.10;6.58;;;;;;;19.15;72.85;100828.61;2184071;81;29665;-66
2022/07/03 04:59:11;;;;;;;10.05;6.97;;;;;;;20.59;71.17;100829.38;2177012;81;27764;-66
2022/07/03 05:02:15;;;;;;;13.03;6.55;;;;;;;22.00;68.79;100824.13;2184101;81;29090;-66
2022/07/03 05:05:20;;;;;;;;;;;;;;;23.27;67.43;100817.09;2186840;81;31034;-66
2022/07/03 05:08:30;;;;;;;7.05;5.75;;;;;;;24.33;64.80;100813.24;2184657;81;32953;-67
2022/07/03 05:11:33;;;;;;;8.53;5.53;;;;;;;25.21;63.46;100808.97;2184172;81;29015;-66
2022/07/03 05:14:42;;;;;;;8.23;5.12;;;;;;;26.21;61.61;100815.93;2184268;81;27705;-67
2022/07/03 05:17:47;;;;;;;6.60;5.50;;;;;;;27.07;60.34;100808.36;2183903;81;28706;-66
2022/07/03 05:20:49;;;;;;;5.55;4.83;;;;;;;27.43;57.64;100812.61;2184013;81;31176;-67
2022/07/03 05:23:50;;;;;;;6.20;5.12;;;;;;;27.64;57.09;100812.06;2183754;81;32918;-66
2022/07/03 05:26:55;;;;;;;9.95;5.85;;;;;;;28.20;55.35;100809.33;2183927;81;29028;-66
2022/07/03 05:29:56;;;;;;;;;;;;;;;28.48;54.29;100807.44;2159465;81;27786;-66
2022/07/03 05:32:57;;;;;;;6.45;5.55;;;;;;;28.64;52.62;100806.45;2183911;81;29466;-65
2022/07/03 05:35:59;;;;;;;8.48;5.42;;;;;;;28.64;52.09;100799.56;2183820;81;31824;-66
2022/07/03 05:42:21;;;;;;;5.40;4.90;;;;;;;28.91;50.58;100797.34;2181360;81;29909;-66
2022/07/03 05:45:23;;;;;;;6.15;5.30;;;;;;;29.32;49.80;100798.86;2181795;81;27687;-66
2022/07/03 05:48:25;;;;;;;5.83;5.33;;;;;;;29.81;49.31;100800.23;2181584;81;28659;-67
2022/07/03 05:51:26;;;;;;;5.75;5.15;;;;;;;30.17;48.41;100812.45;2158071;81;30997;-67
2022/07/03 05:54:27;;;;;;;4.85;4.37;;;;;;;30.31;46.69;100806.02;2181854;81;33061;-67
2022/07/03 05:57:29;;;;;;;6.70;4.97;;;;;;;30.53;46.32;100800.50;2182102;81;29585;-66
2022/07/03 06:00:30;;;;;;;5.50;5.00;;;;;;;30.45;45.22;100804.25;2181957;81;27697;-66
2022/07/03 06:03:31;;;;;;;5.30;4.90;;;;;;;30.43;45.44;100802.23;2181860;81;28625;-67
2022/07/03 06:06:33;;;;;;;5.33;4.92;;;;;;;30.65;44.83;100798.11;2182030;81;30416;-66
2022/07/03 06:09:35;;;;;;;5.37;4.83;;;;;;;30.78;44.10;100800.16;2181899;81;32949;-66
2022/07/03 06:12:37;;;;;;;5.83;4.85;;;;;;;30.88;43.07;100802.60;2181882;81;29002;-66
2022/07/03 06:15:38;;;;;;;6.58;4.37;;;;;;;31.02;43.55;100802.20;2182102;81;27710;-66
2022/07/03 06:18:42;;;;;;;5.83;4.28;;;;;;;31.41;43.32;100802.20;2181539;81;28692;-66
2022/07/03 06:21:44;;;;;;;4.75;4.20;;;;;;;31.75;42.52;100803.31;2182097;81;31006;-66
2022/07/03 06:24:46;;;;;;;5.30;4.90;;;;;;;32.23;41.93;100801.09;2181940;81;32959;-66
2022/07/03 06:27:47;;;;;;;5.17;4.67;;;;;;;32.24;40.31;100799.16;2182031;81;29029;-66
2022/07/03 06:30:49;;;;;;;4.67;4.28;;;;;;;32.27;40.85;100801.00;2181999;81;27781;-67
2022/07/03 06:33:50;;;;;;;5.70;5.20;;;;;;;32.52;40.54;100800.45;2181998;81;28636;-67
2022/07/03 06:36:52;;;;;;;5.15;4.53;;;;;;;32.70;39.23;100793.45;2182065;81;30979;-66
2022/07/03 06:39:53;;;;;;;4.40;4.00;;;;;;;32.91;39.43;100788.81;2181498;81;32976;-67
2022/07/03 06:42:55;;;;;;;4.65;4.17;;;;;;;33.22;39.17;100780.36;2181962;81;29063;-67
2022/07/03 06:45:56;;;;;;;5.20;4.70;;;;;;;33.48;38.11;100780.89;2182134;81;27670;-67
2022/07/03 06:48:57;;;;;;;4.30;3.92;;;;;;;33.30;38.14;100776.83;2181834;81;29456;-68
2022/07/03 06:51:59;;;;;;;5.45;4.90;;;;;;;33.00;36.81;100774.52;2181808;81;31054;-66
2022/07/03 06:55:00;;;;;;;4.00;3.62;;;;;;;32.79;36.87;100778.84;2181769;81;32918;-66
2022/07/03 06:58:01;;;;;;;3.80;3.60;;;;;;;33.01;37.48;100781.73;2181871;81;29778;-66
2022/07/03 07:01:03;;;;;;;4.72;4.05;;;;;;;33.35;37.21;100778.95;2181928;81;27662;-67
2022/07/03 07:04:04;;;;;;;4.05;3.65;;;;;;;33.85;37.13;100773.41;2181924;81;28715;-68
2022/07/03 07:07:05;;;;;;;3.80;3.50;;;;;;;34.15;36.21;100776.53;2181919;81;31805;-67
2022/07/03 07:10:08;;;;;;;3.50;3.20;;;;;;;34.50;35.86;100769.16;2181786;81;33000;-68
2022/07/03 07:13:09;;;;;;;3.85;3.00;;;;;;;34.88;34.88;100769.32;2181908;81;29796;-68
2022/07/03 07:16:11;;;;;;;3.67;3.37;;;;;;;34.93;34.51;100767.59;2181946;81;28269;-67
2022/07/03 07:19:15;;;;;;;4.17;3.65;;;;;;;35.29;34.19;100760.97;2181968;81;28648;-67
2022/07/03 07:22:16;;;;;;;3.05;2.85;;;;;;;35.58;33.20;100752.96;2181630;81;31040;-67
2022/07/03 07:25:18;;;;;;;3.17;2.87;;;;;;;35.87;33.63;100747.67;2181856;81;32942;-67
2022/07/03 07:28:19;;;;;;;2.90;2.70;;;;;;;36.10;32.56;100746.13;2181812;81;29029;-67
2022/07/03 07:31:20;;;;;;;2.77;2.58;;;;;;;36.24;32.11;100744.85;2182150;81;27694;-67
2022/07/03 07:34:21;;;;;;;2.50;2.35;;;;;;;36.35;31.18;100741.24;2181830;81;28609;-67
2022/07/03 07:37:23;;;;;;;2.98;2.77;;;;;;;35.80;31.27;100742.74;2181909;81;31019;-67
2022/07/03 07:40:24;;;;;;;2.98;2.77;;;;;;;35.71;31.58;100742.20;2181509;81;32977;-67
2022/07/03 07:43:26;;;;;;;2.37;2.27;;;;;;;35.62;31.11;100736.09;2181868;81;29669;-68
2022/07/03 07:46:29;;;;;;;2.67;2.47;;;;;;;35.58;30.75;100727.32;2153270;81;40616;-67
2022/07/03 07:49:30;;;;;;;3.22;2.70;;;;;;;35.48;30.22;100725.63;2181489;81;29545;-67
2022/07/03 07:52:31;;;;;;;2.80;2.52;;;;;;;35.46;30.24;100725.56;2181916;81;31028;-69
2022/07/03 07:55:33;;;;;;;2.50;2.22;;;;;;;34.76;29.26;100727.45;2181889;81;33885;-68
2022/07/03 07:58:34;;;;;;;3.10;2.27;;;;;;;33.58;29.80;100730.44;2181812;81;29827;-68
2022/07/03 08:08:17;;;;;;;3.10;2.20;;;;;;;33.64;30.51;100714.27;2181590;81;31034;-70
2022/07/03 08:11:18;;;;;;;2.22;2.12;;;;;;;33.20;30.43;100720.02;2182002;81;32962;-68
2022/07/03 08:14:19;;;;;;;3.98;2.60;;;;;;;33.09;30.83;100713.20;2181992;81;29013;-69
2022/07/03 08:17:20;;;;;;;2.45;2.25;;;;;;;32.90;30.92;100726.05;2181909;81;27679;-68
2022/07/03 08:20:22;;;;;;;2.10;1.90;;;;;;;32.81;31.36;100726.24;2181948;81;28612;-67
2022/07/03 08:23:23;;;;;;;2.50;2.27;;;;;;;32.65;30.14;100726.12;2181524;81;30945;-68
2022/07/03 08:26:24;;;;;;;2.70;2.00;;;;;;;32.61;31.06;100722.56;2181913;81;32923;-67
2022/07/03 08:29:27;;;;;;;2.12;1.92;;;;;;;32.67;30.92;100719.83;2181521;81;29081;-67
2022/07/03 08:32:28;;;;;;;2.65;2.45;;;;;;;32.67;30.73;100714.28;2182168;81;27564;-68
2022/07/03 08:35:31;;;;;;;1.90;1.80;;;;;;;32.68;30.89;100715.11;2181808;81;28601;-68
2022/07/03 08:38:33;;;;;;;2.65;1.70;;;;;;;32.96;30.65;100711.29;2181943;81;31205;-68
2022/07/03 08:41:39;;;;;;;2.67;2.00;;;;;;;32.62;29.65;100718.21;2183536;81;33772;-69
2022/07/03 08:44:42;;;;;;;2.42;1.87;;;;;;;32.03;30.22;100714.23;2157000;81;29022;-67
2022/07/03 08:47:45;;;;;;;3.52;1.62;;;;;;;31.42;30.28;100710.32;2184674;81;27729;-67
2022/07/03 08:50:47;;;;;;;2.00;1.80;;;;;;;31.05;30.67;100711.33;2184602;81;29448;-68
2022/07/03 08:53:48;;;;;;;1.35;1.20;;;;;;;30.90;31.60;100713.34;2184321;81;31067;-68
2022/07/03 08:56:50;;;;;;;1.95;1.65;;;;;;;30.93;31.32;100704.65;2184409;81;32362;-67
2022/07/03 08:59:54;;;;;;;2.27;1.37;;;;;;;30.66;31.61;100707.18;2184049;81;29067;-69
2022/07/03 09:02:57;;;;;;;1.50;1.40;;;;;;;30.54;31.64;100699.91;2184537;81;27630;-68
2022/07/03 09:05:58;;;;;;;3.58;1.60;;;;;;;30.46;32.05;100702.28;2184404;81;28631;-68
2022/07/03 09:09:02;;;;;;;1.37;1.25;;;;;;;30.45;32.12;100690.89;2184262;81;30967;-69
2022/07/03 09:12:05;;;;;;;2.60;1.50;;;;;;;30.60;32.63;100696.94;2184384;81;32959;-68
2022/07/03 09:15:08;;;;;;;2.25;1.50;;;;;;;31.13;31.69;100687.30;2184393;81;29828;-67
2022/07/03 09:18:10;;;;;;;1.55;1.35;;;;;;;30.72;31.24;100691.18;2184657;81;27718;-68
2022/07/03 09:21:13;;;;;;;1.85;1.75;;;;;;;30.30;31.62;100677.16;2184379;81;28625;-68
2022/07/03 09:24:14;;;;;;;1.90;1.60;;;;;;;30.22;32.03;100680.04;2184248;81;30659;-68
2022/07/03 09:27:22;;;;;;;2.58;1.80;;;;;;;30.21;32.42;100673.34;2184231;81;32930;-68
2022/07/03 09:30:23;;;;;;;2.58;2.05;;;;;;;30.52;33.44;100670.75;2184463;81;29037;-68
2022/07/03 09:33:24;;;;;;;1.90;1.77;;;;;;;30.60;32.40;100670.12;2184464;81;27745;-68
2022/07/03 09:36:48;;;;;;;1.70;1.60;;;;;;;30.83;32.50;100657.97;2184323;81;28653;-67
2022/07/03 09:40:00;;;;;;;1.40;1.30;;;;;;;30.82;32.21;100663.69;2184052;81;31004;-68
2022/07/03 09:43:06;;;;;;;3.52;1.77;;;;;;;30.60;31.89;100663.75;2181933;81;33779;-69
2022/07/03 09:46:07;;;;;;;3.92;1.77;;;;;;;30.44;32.97;100660.19;2181940;81;29007;-68
2022/07/03 09:49:09;;;;;;;2.05;1.60;;;;;;;30.52;33.02;100655.55;2182173;81;27736;-69
2022/07/03 09:52:19;;;;;;;2.52;1.62;;;;;;;30.81;33.34;100657.82;2181835;81;28691;-68
2022/07/03 09:55:20;;;;;;;1.40;1.30;;;;;;;31.20;33.37;100653.65;2178020;81;31006;-67
2022/07/03 09:58:22;;;;;;;1.50;1.40;;;;;;;31.48;32.83;100656.36;2182225;81;33377;-67
2022/07/03 10:01:24;;;;;;;2.87;1.60;;;;;;;31.55;31.93;100644.44;2181649;81;29053;-66
2022/07/03 10:04:26;;;;;;;1.60;1.50;;;;;;;31.59;32.24;100649.38;2182161;81;27748;-67
2022/07/03 10:07:28;;;;;;;1.32;1.22;;;;;;;31.67;31.65;100640.03;2182108;81;28619;-67
2022/07/03 10:10:35;;;;;;;1.35;1.22;;;;;;;31.42;31.16;100639.17;2182052;81;31633;-67
2022/07/03 10:13:39;;;;;;;1.35;1.25;;;;;;;31.32;31.66;100645.62;2181952;81;33524;-68
2022/07/03 10:16:41;;;;;;;1.50;1.40;;;;;;;31.42;31.84;100651.63;2182129;81;29007;-67
2022/07/03 10:19:43;;;;;;;3.52;1.70;;;;;;;31.51;31.98;100646.77;2182108;81;27690;-67
2022/07/03 10:22:46;;;;;;;2.00;1.60;;;;;;;31.54;32.15;100642.20;2182129;81;28646;-66
2022/07/03 10:25:48;;;;;;;1.80;1.50;;;;;;;31.49;31.73;100635.04;2182067;81;31187;-67
2022/07/03 10:28:50;;;;;;;1.50;1.40;;;;;;;31.31;31.55;100632.30;2182159;81;32943;-67
2022/07/03 10:31:52;;;;;;;2.12;1.77;;;;;;;30.94;31.87;100631.66;2182010;81;29254;-66
2022/07/03 10:34:53;;;;;;;1.37;1.27;;;;;;;30.59;31.43;100626.09;2182076;81;27615;-67
2022/07/03 10:38:09;;;;;;;1.60;1.47;;;;;;;30.30;31.77;100618.24;2158418;81;28582;-67
2022/07/03 10:45:12;;;;;;;1.55;1.42;;;;;;;30.02;32.55;100606.63;2181892;81;33830;-67
2022/07/03 10:48:13;;;;;;;1.70;1.60;;;;;;;29.92;32.18;100609.67;2182045;81;30018;-67
2022/07/03 10:51:14;;;;;;;1.90;1.80;;;;;;;29.78;32.64;100600.92;2158422;81;27703;-68
2022/07/03 10:54:38;;;;;;;3.25;1.40;;;;;;;29.74;32.70;100600.47;2181618;81;29725;-67
2022/07/03 10:57:42;;;;;;;1.47;1.37;;;;;;;29.76;33.35;100590.59;2159122;81;31017;-67
2022/07/03 11:00:57;;;;;;;3.80;1.40;;;;;;;29.77;33.22;100588.16;2181869;81;33047;-67
2022/07/03 11:04:03;;;;;;;1.50;1.40;;;;;;;29.76;33.30;100589.22;2182057;81;29314;-67
2022/07/03 11:07:08;;;;;;;1.57;1.47;;;;;;;29.83;33.90;100584.09;2182024;81;27694;-67
2022/07/03 11:10:18;;;;;;;4.42;1.35;;;;;;;29.94;33.52;100588.78;2181906;81;28631;-67
2022/07/03 11:13:21;;;;;;;1.40;1.30;;;;;;;30.08;33.57;100580.98;2181895;81;30988;-68
2022/07/03 11:16:23;;;;;;;1.47;1.37;;;;;;;30.12;33.11;100578.12;2181871;81;33843;-67
2022/07/03 11:19:30;;;;;;;1.87;1.67;;;;;;;30.00;33.58;100572.80;2181910;81;29374;-67
2022/07/03 11:22:42;;;;;;;1.85;1.72;;;;;;;29.97;33.76;100568.55;2182329;81;27510;-68
2022/07/03 11:25:50;;;;;;;2.90;1.70;;;;;;;29.90;32.49;100567.58;2181718;81;28626;-68
2022/07/03 11:28:53;;;;;;;6.03;1.87;;;;;;;29.56;32.80;100567.75;2181902;81;30646;-69
2022/07/03 11:31:55;;;;;;;2.15;1.50;;;;;;;29.31;33.08;100566.70;2182001;81;32353;-67
2022/07/03 11:34:56;;;;;;;1.45;1.35;;;;;;;29.14;33.43;100566.59;2181915;81;30151;-67
2022/07/03 11:37:57;;;;;;;1.92;1.80;;;;;;;29.00;33.69;100565.04;2181961;81;27625;-68
2022/07/03 11:41:00;;;;;;;2.40;1.70;;;;;;;28.95;34.04;100564.24;2182424;81;28680;-68
2022/07/03 11:44:04;;;;;;;2.00;1.80;;;;;;;28.89;33.75;100559.98;2184220;81;31883;-68
2022/07/03 11:47:05;;;;;;;1.72;1.62;;;;;;;28.82;34.21;100557.67;2184311;81;33101;-69
2022/07/03 11:50:08;;;;;;;1.50;1.40;;;;;;;28.79;33.94;100557.00;2184390;81;29326;-68
2022/07/03 11:53:29;;;;;;;2.27;1.65;;;;;;;28.64;34.04;100555.58;2184100;81;28205;-67
2022/07/03 11:56:32;;;;;;;1.90;1.80;;;;;;;28.57;34.29;100553.27;2184384;81;29485;-69
2022/07/03 11:59:33;;;;;;;1.50;1.40;;;;;;;28.52;34.05;100551.58;2184208;81;31862;-67
2022/07/03 12:02:49;;;;;;;1.80;1.70;;;;;;;28.38;34.55;100546.91;2184333;81;32930;-68
2022/07/03 12:05:58;;;;;;;2.08;1.80;;;;;;;28.29;34.18;100546.13;2184340;81;29323;-67
2022/07/03 12:09:00;;;;;;;4.12;3.60;;;;;;;28.13;34.90;100543.03;2185117;81;27555;-69
2022/07/03 12:12:10;;;;;;;1.95;1.65;;;;;;;28.08;34.91;100524.25;2184468;81;28056;-70
2022/07/03 12:15:11;;;;;;;1.77;1.67;;;;;;;27.94;34.66;100527.31;2178738;81;31096;-70
2022/07/03 12:18:14;;;;;;;1.92;1.82;;;;;;;27.79;34.91;100520.91;2184382;81;32944;-69
2022/07/03 12:21:16;;;;;;;2.40;1.90;;;;;;;27.63;35.01;100528.25;2184404;81;28749;-69
2022/07/03 12:24:17;;;;;;;1.50;1.40;;;;;;;27.55;34.88;100513.99;2184230;81;27727;-68
2022/07/03 12:27:19;;;;;;;1.60;1.50;;;;;;;27.50;35.21;100511.45;2184509;81;28613;-68
2022/07/03 12:30:27;;;;;;;1.57;1.47;;;;;;;27.44;35.00;100511.14;2184462;81;30971;-68
2022/07/03 12:33:30;;;;;;;1.62;1.52;;;;;;;27.35;35.32;100520.47;2184355;81;32947;-69
2022/07/03 12:36:31;;;;;;;2.12;1.70;;;;;;;27.22;35.48;100514.70;2184652;81;29338;-68
2022/07/03 12:39:48;;;;;;;2.22;1.80;;;;;;;27.21;36.03;100517.11;2184593;81;27623;-69
2022/07/03 12:42:54;;;;;;;2.33;1.90;;;;;;;27.24;36.22;100516.23;2184076;81;28619;-68
2022/07/03 12:45:55;;;;;;;1.92;1.80;;;;;;;27.27;35.92;100506.24;2184318;81;31022;-68
2022/07/03 12:48:58;;;;;;;1.85;1.52;;;;;;;27.28;35.94;100505.74;2184432;81;32928;-68
2022/07/03 12:51:59;;;;;;;2.77;1.55;;;;;;;27.26;36.09;100500.40;2184316;81;29318;-69
2022/07/03 12:55:02;;;;;;;2.05;1.80;;;;;;;27.28;35.87;100508.48;2184532;81;27620;-69
2022/07/03 13:01:36;;;;;;;1.57;1.47;;;;;;;27.29;36.15;100512.42;2184405;81;31790;-69
2022/07/03 13:04:38;;;;;;;2.02;1.77;;;;;;;27.25;35.93;100506.94;2184522;81;32965;-71
2022/07/03 13:07:41;;;;;;;2.02;1.90;;;;;;;27.13;35.97;100501.02;2184342;81;29374;-69
2022/07/03 13:10:42;;;;;;;2.12;1.90;;;;;;;27.03;36.08;100505.02;2184334;81;27701;-67
2022/07/03 13:13:47;;;;;;;3.60;1.77;;;;;;;26.99;36.13;100490.75;2184927;81;29462;-67
2022/07/03 13:16:54;;;;;;;1.82;1.72;;;;;;;27.03;36.43;100488.52;2184280;81;31033;-68
2022/07/03 13:19:55;;;;;;;2.12;1.75;;;;;;;27.06;36.49;100484.88;2184255;81;33749;-68
2022/07/03 13:23:01;;;;;;;4.55;2.42;;;;;;;27.03;36.48;100477.52;2183905;81;30362;-67
2022/07/03 13:26:02;;;;;;;2.50;2.30;;;;;;;26.98;36.33;100479.41;2184380;81;27686;-68
2022/07/03 13:29:04;;;;;;;1.90;1.80;;;;;;;26.94;36.45;100474.80;2184381;81;28612;-68
2022/07/03 13:32:06;;;;;;;2.50;2.30;;;;;;;26.89;36.38;100473.63;2184291;81;31046;-67
2022/07/03 13:35:08;;;;;;;2.60;2.20;;;;;;;26.84;36.24;100475.02;2184347;81;33397;-68
2022/07/03 13:38:09;;;;;;;1.85;1.75;;;;;;;26.77;36.17;100468.50;2184237;81;29363;-67
2022/07/03 13:41:11;;;;;;;2.47;1.95;;;;;;;26.73;36.29;100464.89;2184017;81;27670;-68
2022/07/03 13:44:24;;;;;;;4.42;2.30;;;;;;;26.74;36.73;100470.73;2181697;81;29503;-67
2022/07/03 13:47:26;;;;;;;3.92;2.30;;;;;;;26.75;36.91;100467.82;2181541;81;31109;-68
2022/07/03 13:50:28;;;;;;;2.42;2.22;;;;;;;26.75;36.94;100468.32;2182108;81;32974;-67
2022/07/03 13:53:29;;;;;;;2.12;1.82;;;;;;;26.79;36.82;100468.31;2181926;81;29325;-67
2022/07/03 13:56:31;;;;;;;3.77;2.50;;;;;;;26.82;36.60;100466.62;2182100;81;27750;-67
2022/07/03 13:59:32;;;;;;;2.77;2.47;;;;;;;26.78;36.50;100459.22;2158358;81;29776;-67
2022/07/03 14:02:33;;;;;;;2.37;2.17;;;;;;;26.76;36.39;100445.30;2181668;81;31218;-68
2022/07/03 14:05:35;;;;;;;3.00;2.20;;;;;;;26.76;36.42;100446.67;2181950;81;32955;-67
2022/07/03 14:08:36;;;;;;;3.17;2.02;;;;;;;26.73;36.26;100434.66;2182006;81;28730;-68
2022/07/03 14:11:37;;;;;;;1.90;1.80;;;;;;;26.70;36.81;100441.38;2182085;81;28139;-68
2022/07/03 14:14:39;;;;;;;2.72;2.50;;;;;;;26.67;36.78;100441.73;2182028;81;28643;-67
2022/07/03 14:17:42;;;;;;;2.70;2.50;;;;;;;26.66;36.55;100438.64;2181978;81;30966;-67
2022/07/03 14:20:44;;;;;;;2.47;2.30;;;;;;;26.66;36.52;100432.64;2181954;81;33795;-68
2022/07/03 14:23:45;;;;;;;2.85;2.65;;;;;;;26.65;36.59;100422.69;2181902;81;29294;-68
2022/07/03 14:33:28;;;;;;;3.00;2.50;;;;;;;26.65;37.03;100419.94;2181609;81;31886;-68
2022/07/03 14:36:29;;;;;;;2.72;2.10;;;;;;;26.60;37.07;100420.98;2181836;81;32927;-68
2022/07/03 14:39:32;;;;;;;3.72;2.12;;;;;;;26.60;36.91;100412.73;2181464;81;27623;-68